sensor_id;sensor_type;location;lat;lon;timestamp;P1;durP1;ratioP1;P2;durP2;ratioP2
5465;SDS011;2755;50.728;7.108;2022-10-16T00:01:04;1.10;;;0.90;;
5465;SDS011;2755;50.728;7.108;2022-10-16T00:03:35;2.17;;;1.30;;
5465;SDS011;2755;50.728;7.108;2022-10-16T00:06:01;2.10;;;1.23;;
5465;SDS011;2755;50.728;7.108;2022-10-16T00:08:27;2.30;;;1.20;;
5465;SDS011;2755;50.728;7.108;2022-10-16T00:11:04;1.23;;;1.10;;
5465;SDS011;2755;50.728;7.108;2022-10-16T00:13:32;2.17;;;1.37;;
5465;SDS011;2755;50.728;7.108;2022-10-16T00:15:59;1.83;;;1.00;;
5465;SDS011;2755;50.728;7.108;2022-10-16T00:18:26;1.30;;;1.20;;
5465;SDS011;2755;50.728;7.108;2022-10-16T00:20:52;1.00;;;0.90;;
5465;SDS011;2755;50.728;7.108;2022-10-16T00:23:19;2.80;;;1.20;;
5465;SDS011;2755;50.728;7.108;2022-10-16T00:25:45;3.57;;;1.63;;
5465;SDS011;2755;50.728;7.108;2022-10-16T00:28:23;2.10;;;1.20;;
5465;SDS011;2755;50.728;7.108;2022-10-16T00:30:49;1.10;;;1.00;;
5465;SDS011;2755;50.728;7.108;2022-10-16T00:33:14;2.87;;;1.07;;
5465;SDS011;2755;50.728;7.108;2022-10-16T00:35:40;1.40;;;0.90;;
5465;SDS011;2755;50.728;7.108;2022-10-16T00:38:05;1.47;;;1.00;;
5465;SDS011;2755;50.728;7.108;2022-10-16T00:40:31;1.37;;;0.97;;
5465;SDS011;2755;50.728;7.108;2022-10-16T00:42:57;3.60;;;1.03;;
5465;SDS011;2755;50.728;7.108;2022-10-16T00:45:22;1.27;;;0.97;;
5465;SDS011;2755;50.728;7.108;2022-10-16T00:47:48;2.60;;;1.20;;
5465;SDS011;2755;50.728;7.108;2022-10-16T00:50:18;2.40;;;1.30;;
5465;SDS011;2755;50.728;7.108;2022-10-16T00:52:54;1.17;;;1.07;;
5465;SDS011;2755;50.728;7.108;2022-10-16T00:55:21;2.90;;;1.20;;
5465;SDS011;2755;50.728;7.108;2022-10-16T00:57:47;4.37;;;1.70;;
5465;SDS011;2755;50.728;7.108;2022-10-16T01:00:17;1.43;;;1.27;;
5465;SDS011;2755;50.728;7.108;2022-10-16T01:02:44;1.97;;;1.20;;
5465;SDS011;2755;50.728;7.108;2022-10-16T01:05:16;1.50;;;1.20;;
5465;SDS011;2755;50.728;7.108;2022-10-16T01:15:53;1.20;;;0.90;;
5465;SDS011;2755;50.728;7.108;2022-10-16T01:18:44;1.70;;;1.13;;
5465;SDS011;2755;50.728;7.108;2022-10-16T01:21:14;1.43;;;0.90;;
5465;SDS011;2755;50.728;7.108;2022-10-16T01:24:04;3.57;;;1.10;;
5465;SDS011;2755;50.728;7.108;2022-10-16T01:29:58;1.30;;;1.10;;
5465;SDS011;2755;50.728;7.108;2022-10-16T01:40:43;2.10;;;1.10;;
5465;SDS011;2755;50.728;7.108;2022-10-16T01:43:15;1.30;;;1.20;;
5465;SDS011;2755;50.728;7.108;2022-10-16T01:45:47;2.07;;;1.40;;
5465;SDS011;2755;50.728;7.108;2022-10-16T01:48:14;2.10;;;1.10;;
5465;SDS011;2755;50.728;7.108;2022-10-16T01:50:43;1.60;;;1.40;;
5465;SDS011;2755;50.728;7.108;2022-10-16T01:53:14;1.53;;;1.27;;
5465;SDS011;2755;50.728;7.108;2022-10-16T01:55:43;1.43;;;1.20;;
5465;SDS011;2755;50.728;7.108;2022-10-16T01:58:12;1.40;;;1.00;;
5465;SDS011;2755;50.728;7.108;2022-10-16T02:00:39;1.03;;;0.93;;
5465;SDS011;2755;50.728;7.108;2022-10-16T02:03:08;2.07;;;1.37;;
5465;SDS011;2755;50.728;7.108;2022-10-16T02:08:07;2.40;;;1.30;;
5465;SDS011;2755;50.728;7.108;2022-10-16T02:10:34;2.13;;;1.30;;
5465;SDS011;2755;50.728;7.108;2022-10-16T02:13:03;2.90;;;1.40;;
5465;SDS011;2755;50.728;7.108;2022-10-16T02:15:34;1.23;;;1.13;;
5465;SDS011;2755;50.728;7.108;2022-10-16T02:18:00;1.27;;;1.17;;
5465;SDS011;2755;50.728;7.108;2022-10-16T02:20:31;2.23;;;1.07;;
5465;SDS011;2755;50.728;7.108;2022-10-16T02:23:00;1.03;;;0.93;;
5465;SDS011;2755;50.728;7.108;2022-10-16T02:25:30;3.10;;;1.40;;
5465;SDS011;2755;50.728;7.108;2022-10-16T02:30:26;2.37;;;1.13;;
5465;SDS011;2755;50.728;7.108;2022-10-16T02:33:13;4.10;;;0.97;;
5465;SDS011;2755;50.728;7.108;2022-10-16T02:35:40;1.37;;;0.90;;
5465;SDS011;2755;50.728;7.108;2022-10-16T02:38:08;1.70;;;1.13;;
5465;SDS011;2755;50.728;7.108;2022-10-16T02:40:34;6.13;;;1.13;;
5465;SDS011;2755;50.728;7.108;2022-10-16T02:43:03;1.80;;;1.27;;
5465;SDS011;2755;50.728;7.108;2022-10-16T02:45:29;2.93;;;1.03;;
5465;SDS011;2755;50.728;7.108;2022-10-16T02:47:58;1.33;;;0.97;;
5465;SDS011;2755;50.728;7.108;2022-10-16T02:50:24;1.87;;;0.90;;
5465;SDS011;2755;50.728;7.108;2022-10-16T02:52:50;1.20;;;1.03;;
5465;SDS011;2755;50.728;7.108;2022-10-16T02:55:16;1.67;;;1.33;;
5465;SDS011;2755;50.728;7.108;2022-10-16T02:57:42;1.90;;;1.10;;
5465;SDS011;2755;50.728;7.108;2022-10-16T03:00:09;1.60;;;1.10;;
5465;SDS011;2755;50.728;7.108;2022-10-16T03:02:37;1.20;;;1.10;;
5465;SDS011;2755;50.728;7.108;2022-10-16T03:05:02;2.40;;;1.27;;
5465;SDS011;2755;50.728;7.108;2022-10-16T03:07:28;1.10;;;1.00;;
5465;SDS011;2755;50.728;7.108;2022-10-16T03:09:54;1.73;;;1.00;;
5465;SDS011;2755;50.728;7.108;2022-10-16T03:12:20;3.90;;;1.23;;
5465;SDS011;2755;50.728;7.108;2022-10-16T03:14:46;2.63;;;1.40;;
5465;SDS011;2755;50.728;7.108;2022-10-16T03:17:12;1.30;;;1.10;;
5465;SDS011;2755;50.728;7.108;2022-10-16T03:19:38;2.17;;;1.00;;
5465;SDS011;2755;50.728;7.108;2022-10-16T03:22:04;1.30;;;0.93;;
5465;SDS011;2755;50.728;7.108;2022-10-16T03:24:32;1.13;;;1.03;;
5465;SDS011;2755;50.728;7.108;2022-10-16T03:26:57;2.13;;;1.03;;
5465;SDS011;2755;50.728;7.108;2022-10-16T03:29:23;1.27;;;0.90;;
5465;SDS011;2755;50.728;7.108;2022-10-16T03:31:50;1.80;;;0.97;;
5465;SDS011;2755;50.728;7.108;2022-10-16T03:34:16;2.00;;;1.00;;
5465;SDS011;2755;50.728;7.108;2022-10-16T03:36:42;2.33;;;1.27;;
5465;SDS011;2755;50.728;7.108;2022-10-16T03:39:07;4.13;;;1.10;;
5465;SDS011;2755;50.728;7.108;2022-10-16T03:41:33;1.20;;;1.10;;
5465;SDS011;2755;50.728;7.108;2022-10-16T03:43:59;4.90;;;1.00;;
5465;SDS011;2755;50.728;7.108;2022-10-16T03:46:24;1.17;;;1.07;;
5465;SDS011;2755;50.728;7.108;2022-10-16T03:48:50;1.10;;;1.00;;
5465;SDS011;2755;50.728;7.108;2022-10-16T03:51:15;4.50;;;1.20;;
5465;SDS011;2755;50.728;7.108;2022-10-16T03:53:41;1.40;;;1.10;;
5465;SDS011;2755;50.728;7.108;2022-10-16T03:56:06;3.90;;;1.23;;
5465;SDS011;2755;50.728;7.108;2022-10-16T03:58:32;1.23;;;1.10;;
5465;SDS011;2755;50.728;7.108;2022-10-16T04:00:58;2.10;;;0.80;;
5465;SDS011;2755;50.728;7.108;2022-10-16T04:03:23;1.00;;;0.70;;
5465;SDS011;2755;50.728;7.108;2022-10-16T04:05:49;1.10;;;0.70;;
5465;SDS011;2755;50.728;7.108;2022-10-16T04:08:15;1.00;;;0.90;;
5465;SDS011;2755;50.728;7.108;2022-10-16T04:10:44;3.07;;;1.80;;
5465;SDS011;2755;50.728;7.108;2022-10-16T04:13:10;0.90;;;0.70;;
5465;SDS011;2755;50.728;7.108;2022-10-16T04:15:36;1.00;;;0.70;;
5465;SDS011;2755;50.728;7.108;2022-10-16T04:18:03;0.70;;;0.60;;
5465;SDS011;2755;50.728;7.108;2022-10-16T04:20:29;1.00;;;0.90;;
5465;SDS011;2755;50.728;7.108;2022-10-16T04:22:55;1.27;;;0.80;;
5465;SDS011;2755;50.728;7.108;2022-10-16T04:25:21;0.80;;;0.60;;
5465;SDS011;2755;50.728;7.108;2022-10-16T04:27:46;2.67;;;1.33;;
5465;SDS011;2755;50.728;7.108;2022-10-16T04:30:12;4.50;;;1.00;;
5465;SDS011;2755;50.728;7.108;2022-10-16T04:32:38;8.40;;;1.13;;
5465;SDS011;2755;50.728;7.108;2022-10-16T04:35:04;1.60;;;1.00;;
5465;SDS011;2755;50.728;7.108;2022-10-16T04:37:30;2.67;;;0.97;;
5465;SDS011;2755;50.728;7.108;2022-10-16T04:39:56;1.20;;;1.10;;
5465;SDS011;2755;50.728;7.108;2022-10-16T04:42:22;1.00;;;0.83;;
5465;SDS011;2755;50.728;7.108;2022-10-16T04:44:48;1.23;;;0.80;;
5465;SDS011;2755;50.728;7.108;2022-10-16T04:47:14;0.80;;;0.77;;
5465;SDS011;2755;50.728;7.108;2022-10-16T04:49:40;1.00;;;0.87;;
5465;SDS011;2755;50.728;7.108;2022-10-16T04:52:05;1.20;;;1.10;;
5465;SDS011;2755;50.728;7.108;2022-10-16T04:54:31;2.70;;;0.80;;
5465;SDS011;2755;50.728;7.108;2022-10-16T04:56:57;1.50;;;1.30;;
5465;SDS011;2755;50.728;7.108;2022-10-16T04:59:22;1.17;;;1.07;;
5465;SDS011;2755;50.728;7.108;2022-10-16T05:01:48;1.10;;;0.77;;
5465;SDS011;2755;50.728;7.108;2022-10-16T05:04:14;1.07;;;0.80;;
5465;SDS011;2755;50.728;7.108;2022-10-16T05:06:40;2.03;;;1.20;;
5465;SDS011;2755;50.728;7.108;2022-10-16T05:09:06;2.40;;;0.80;;
5465;SDS011;2755;50.728;7.108;2022-10-16T05:11:33;0.90;;;0.80;;
5465;SDS011;2755;50.728;7.108;2022-10-16T05:13:59;1.23;;;1.00;;
5465;SDS011;2755;50.728;7.108;2022-10-16T05:16:25;0.93;;;0.90;;
5465;SDS011;2755;50.728;7.108;2022-10-16T05:18:51;0.87;;;0.80;;
5465;SDS011;2755;50.728;7.108;2022-10-16T05:21:17;3.40;;;1.10;;
5465;SDS011;2755;50.728;7.108;2022-10-16T05:23:43;4.87;;;1.53;;
5465;SDS011;2755;50.728;7.108;2022-10-16T05:26:08;1.03;;;0.90;;
5465;SDS011;2755;50.728;7.108;2022-10-16T05:28:34;1.53;;;1.30;;
5465;SDS011;2755;50.728;7.108;2022-10-16T05:31:04;2.13;;;1.17;;
5465;SDS011;2755;50.728;7.108;2022-10-16T05:33:33;1.43;;;0.80;;
5465;SDS011;2755;50.728;7.108;2022-10-16T05:36:03;2.30;;;1.30;;
5465;SDS011;2755;50.728;7.108;2022-10-16T05:38:29;1.10;;;1.00;;
5465;SDS011;2755;50.728;7.108;2022-10-16T05:40:55;1.23;;;1.13;;
5465;SDS011;2755;50.728;7.108;2022-10-16T05:43:21;4.83;;;1.90;;
5465;SDS011;2755;50.728;7.108;2022-10-16T05:45:57;1.30;;;1.20;;
5465;SDS011;2755;50.728;7.108;2022-10-16T05:48:24;1.77;;;1.33;;
5465;SDS011;2755;50.728;7.108;2022-10-16T05:53:45;1.70;;;1.17;;
5465;SDS011;2755;50.728;7.108;2022-10-16T05:56:10;3.30;;;1.50;;
5465;SDS011;2755;50.728;7.108;2022-10-16T05:58:37;1.83;;;1.40;;
5465;SDS011;2755;50.728;7.108;2022-10-16T06:01:12;1.37;;;1.20;;
5465;SDS011;2755;50.728;7.108;2022-10-16T06:03:39;1.60;;;1.20;;
5465;SDS011;2755;50.728;7.108;2022-10-16T06:06:08;3.87;;;1.43;;
5465;SDS011;2755;50.728;7.108;2022-10-16T06:08:39;1.60;;;1.30;;
5465;SDS011;2755;50.728;7.108;2022-10-16T06:11:07;3.43;;;1.40;;
5465;SDS011;2755;50.728;7.108;2022-10-16T06:13:38;4.00;;;1.40;;
5465;SDS011;2755;50.728;7.108;2022-10-16T06:16:06;2.80;;;1.40;;
5465;SDS011;2755;50.728;7.108;2022-10-16T06:18:33;1.47;;;1.13;;
5465;SDS011;2755;50.728;7.108;2022-10-16T06:20:58;1.30;;;1.20;;
5465;SDS011;2755;50.728;7.108;2022-10-16T06:23:24;1.77;;;1.10;;
5465;SDS011;2755;50.728;7.108;2022-10-16T06:25:50;2.43;;;1.53;;
5465;SDS011;2755;50.728;7.108;2022-10-16T06:28:16;1.90;;;1.13;;
5465;SDS011;2755;50.728;7.108;2022-10-16T06:30:42;3.00;;;1.83;;
5465;SDS011;2755;50.728;7.108;2022-10-16T06:33:11;2.60;;;1.20;;
5465;SDS011;2755;50.728;7.108;2022-10-16T06:35:37;1.30;;;1.20;;
5465;SDS011;2755;50.728;7.108;2022-10-16T06:38:02;1.97;;;1.50;;
5465;SDS011;2755;50.728;7.108;2022-10-16T06:40:28;1.93;;;1.10;;
5465;SDS011;2755;50.728;7.108;2022-10-16T06:42:56;1.47;;;1.37;;
5465;SDS011;2755;50.728;7.108;2022-10-16T06:45:22;1.50;;;1.40;;
5465;SDS011;2755;50.728;7.108;2022-10-16T06:47:50;1.97;;;1.63;;
5465;SDS011;2755;50.728;7.108;2022-10-16T06:50:16;1.57;;;0.93;;
5465;SDS011;2755;50.728;7.108;2022-10-16T06:52:42;1.20;;;1.10;;
5465;SDS011;2755;50.728;7.108;2022-10-16T06:55:07;1.43;;;1.10;;
5465;SDS011;2755;50.728;7.108;2022-10-16T06:57:33;1.50;;;1.40;;
5465;SDS011;2755;50.728;7.108;2022-10-16T06:59:59;1.30;;;1.13;;
5465;SDS011;2755;50.728;7.108;2022-10-16T07:02:24;1.60;;;1.30;;
5465;SDS011;2755;50.728;7.108;2022-10-16T07:04:50;1.50;;;1.30;;
5465;SDS011;2755;50.728;7.108;2022-10-16T07:07:16;1.17;;;1.07;;
5465;SDS011;2755;50.728;7.108;2022-10-16T07:09:41;1.73;;;1.37;;
5465;SDS011;2755;50.728;7.108;2022-10-16T07:12:07;1.40;;;1.20;;
5465;SDS011;2755;50.728;7.108;2022-10-16T07:14:33;2.43;;;1.40;;
5465;SDS011;2755;50.728;7.108;2022-10-16T07:16:58;2.40;;;1.60;;
5465;SDS011;2755;50.728;7.108;2022-10-16T07:19:24;1.70;;;1.40;;
5465;SDS011;2755;50.728;7.108;2022-10-16T07:21:50;2.30;;;1.90;;
5465;SDS011;2755;50.728;7.108;2022-10-16T07:24:16;1.67;;;1.57;;
5465;SDS011;2755;50.728;7.108;2022-10-16T07:26:42;2.07;;;1.80;;
5465;SDS011;2755;50.728;7.108;2022-10-16T07:29:16;1.60;;;1.50;;
5465;SDS011;2755;50.728;7.108;2022-10-16T07:31:43;1.73;;;1.40;;
5465;SDS011;2755;50.728;7.108;2022-10-16T07:34:10;1.53;;;1.43;;
5465;SDS011;2755;50.728;7.108;2022-10-16T07:36:37;2.17;;;1.67;;
5465;SDS011;2755;50.728;7.108;2022-10-16T07:39:03;2.00;;;1.60;;
5465;SDS011;2755;50.728;7.108;2022-10-16T07:41:29;3.27;;;1.73;;
5465;SDS011;2755;50.728;7.108;2022-10-16T07:43:55;9.27;;;2.00;;
5465;SDS011;2755;50.728;7.108;2022-10-16T07:46:24;3.97;;;2.03;;
5465;SDS011;2755;50.728;7.108;2022-10-16T07:48:50;2.63;;;1.70;;
5465;SDS011;2755;50.728;7.108;2022-10-16T07:51:17;1.80;;;1.57;;
5465;SDS011;2755;50.728;7.108;2022-10-16T07:53:44;2.00;;;1.60;;
5465;SDS011;2755;50.728;7.108;2022-10-16T07:56:10;1.70;;;1.60;;
5465;SDS011;2755;50.728;7.108;2022-10-16T07:58:36;3.33;;;1.53;;
5465;SDS011;2755;50.728;7.108;2022-10-16T08:01:03;2.00;;;1.37;;
5465;SDS011;2755;50.728;7.108;2022-10-16T08:03:30;3.30;;;1.83;;
5465;SDS011;2755;50.728;7.108;2022-10-16T08:05:56;1.53;;;1.43;;
5465;SDS011;2755;50.728;7.108;2022-10-16T08:08:23;3.40;;;1.27;;
5465;SDS011;2755;50.728;7.108;2022-10-16T08:10:48;2.73;;;1.70;;
5465;SDS011;2755;50.728;7.108;2022-10-16T08:13:14;2.20;;;1.50;;
5465;SDS011;2755;50.728;7.108;2022-10-16T08:15:40;2.73;;;1.40;;
5465;SDS011;2755;50.728;7.108;2022-10-16T08:18:10;2.40;;;1.50;;
5465;SDS011;2755;50.728;7.108;2022-10-16T08:20:37;1.87;;;1.40;;
5465;SDS011;2755;50.728;7.108;2022-10-16T08:23:03;1.67;;;1.30;;
5465;SDS011;2755;50.728;7.108;2022-10-16T08:25:29;2.10;;;1.47;;
5465;SDS011;2755;50.728;7.108;2022-10-16T08:27:55;1.90;;;0.93;;
5465;SDS011;2755;50.728;7.108;2022-10-16T08:30:21;1.50;;;1.03;;
5465;SDS011;2755;50.728;7.108;2022-10-16T08:32:48;2.70;;;1.10;;
5465;SDS011;2755;50.728;7.108;2022-10-16T08:35:14;3.50;;;1.23;;
5465;SDS011;2755;50.728;7.108;2022-10-16T08:37:40;1.20;;;1.00;;
5465;SDS011;2755;50.728;7.108;2022-10-16T08:40:12;1.97;;;0.80;;
5465;SDS011;2755;50.728;7.108;2022-10-16T08:48:26;2.70;;;0.77;;
5465;SDS011;2755;50.728;7.108;2022-10-16T08:50:57;1.10;;;0.90;;
5465;SDS011;2755;50.728;7.108;2022-10-16T08:53:25;1.97;;;0.87;;
5465;SDS011;2755;50.728;7.108;2022-10-16T08:55:56;0.80;;;0.60;;
5465;SDS011;2755;50.728;7.108;2022-10-16T08:58:26;2.83;;;1.00;;
5465;SDS011;2755;50.728;7.108;2022-10-16T09:00:54;1.10;;;0.63;;
5465;SDS011;2755;50.728;7.108;2022-10-16T09:06:20;3.40;;;0.80;;
5465;SDS011;2755;50.728;7.108;2022-10-16T09:11:31;1.03;;;0.70;;
5465;SDS011;2755;50.728;7.108;2022-10-16T09:14:02;2.70;;;1.00;;
5465;SDS011;2755;50.728;7.108;2022-10-16T09:17:00;2.43;;;0.70;;
5465;SDS011;2755;50.728;7.108;2022-10-16T09:19:34;1.03;;;0.70;;
5465;SDS011;2755;50.728;7.108;2022-10-16T09:22:10;0.80;;;0.70;;
5465;SDS011;2755;50.728;7.108;2022-10-16T09:24:39;1.63;;;0.70;;
5465;SDS011;2755;50.728;7.108;2022-10-16T09:27:07;0.90;;;0.60;;
5465;SDS011;2755;50.728;7.108;2022-10-16T09:29:37;6.40;;;0.70;;
5465;SDS011;2755;50.728;7.108;2022-10-16T09:32:12;1.80;;;0.80;;
5465;SDS011;2755;50.728;7.108;2022-10-16T09:34:43;2.60;;;0.63;;
5465;SDS011;2755;50.728;7.108;2022-10-16T09:37:14;1.30;;;0.70;;
5465;SDS011;2755;50.728;7.108;2022-10-16T09:39:44;3.70;;;0.60;;
5465;SDS011;2755;50.728;7.108;2022-10-16T09:42:14;1.10;;;0.60;;
5465;SDS011;2755;50.728;7.108;2022-10-16T09:44:41;1.00;;;0.50;;
5465;SDS011;2755;50.728;7.108;2022-10-16T09:49:38;0.93;;;0.50;;
5465;SDS011;2755;50.728;7.108;2022-10-16T09:52:13;0.80;;;0.40;;
5465;SDS011;2755;50.728;7.108;2022-10-16T09:54:56;4.20;;;0.50;;
5465;SDS011;2755;50.728;7.108;2022-10-16T09:57:23;0.60;;;0.30;;
5465;SDS011;2755;50.728;7.108;2022-10-16T09:59:58;1.80;;;0.43;;
5465;SDS011;2755;50.728;7.108;2022-10-16T10:04:58;0.70;;;0.43;;
5465;SDS011;2755;50.728;7.108;2022-10-16T10:07:27;0.70;;;0.40;;
5465;SDS011;2755;50.728;7.108;2022-10-16T10:09:58;0.80;;;0.40;;
5465;SDS011;2755;50.728;7.108;2022-10-16T10:12:26;3.53;;;0.60;;
5465;SDS011;2755;50.728;7.108;2022-10-16T10:14:56;1.10;;;0.50;;
5465;SDS011;2755;50.728;7.108;2022-10-16T10:17:24;2.17;;;0.43;;
5465;SDS011;2755;50.728;7.108;2022-10-16T10:19:58;0.60;;;0.40;;
5465;SDS011;2755;50.728;7.108;2022-10-16T10:24:57;1.17;;;0.60;;
5465;SDS011;2755;50.728;7.108;2022-10-16T10:27:52;2.87;;;0.40;;
5465;SDS011;2755;50.728;7.108;2022-10-16T10:30:41;1.67;;;0.50;;
5465;SDS011;2755;50.728;7.108;2022-10-16T10:36:21;0.90;;;0.40;;
5465;SDS011;2755;50.728;7.108;2022-10-16T10:39:07;0.70;;;0.30;;
5465;SDS011;2755;50.728;7.108;2022-10-16T10:44:16;0.80;;;0.40;;
5465;SDS011;2755;50.728;7.108;2022-10-16T10:46:56;1.53;;;0.40;;
5465;SDS011;2755;50.728;7.108;2022-10-16T10:52:38;1.10;;;0.40;;
5465;SDS011;2755;50.728;7.108;2022-10-16T11:03:35;1.10;;;0.40;;
5465;SDS011;2755;50.728;7.108;2022-10-16T11:06:22;1.57;;;0.50;;
5465;SDS011;2755;50.728;7.108;2022-10-16T11:08:53;0.70;;;0.40;;
5465;SDS011;2755;50.728;7.108;2022-10-16T11:12:15;1.80;;;0.53;;
5465;SDS011;2755;50.728;7.108;2022-10-16T11:14:29;2.43;;;0.50;;
5465;SDS011;2755;50.728;7.108;2022-10-16T11:17:11;1.43;;;0.50;;
5465;SDS011;2755;50.728;7.108;2022-10-16T11:19:54;1.00;;;0.57;;
5465;SDS011;2755;50.728;7.108;2022-10-16T11:22:27;0.60;;;0.40;;
5465;SDS011;2755;50.728;7.108;2022-10-16T11:24:59;1.27;;;0.60;;
5465;SDS011;2755;50.728;7.108;2022-10-16T11:27:40;0.73;;;0.40;;
5465;SDS011;2755;50.728;7.108;2022-10-16T11:30:43;2.00;;;0.50;;
5465;SDS011;2755;50.728;7.108;2022-10-16T11:38:33;0.80;;;0.40;;
5465;SDS011;2755;50.728;7.108;2022-10-16T11:43:38;0.60;;;0.30;;
5465;SDS011;2755;50.728;7.108;2022-10-16T11:46:20;0.70;;;0.40;;
5465;SDS011;2755;50.728;7.108;2022-10-16T11:49:08;2.03;;;0.30;;
5465;SDS011;2755;50.728;7.108;2022-10-16T11:51:40;0.63;;;0.40;;
5465;SDS011;2755;50.728;7.108;2022-10-16T11:54:18;1.00;;;0.50;;
5465;SDS011;2755;50.728;7.108;2022-10-16T11:56:54;0.97;;;0.50;;
5465;SDS011;2755;50.728;7.108;2022-10-16T11:59:28;1.20;;;0.40;;
5465;SDS011;2755;50.728;7.108;2022-10-16T12:04:42;0.83;;;0.40;;
5465;SDS011;2755;50.728;7.108;2022-10-16T12:07:19;0.90;;;0.50;;
5465;SDS011;2755;50.728;7.108;2022-10-16T12:09:50;1.00;;;0.37;;
5465;SDS011;2755;50.728;7.108;2022-10-16T12:15:00;4.50;;;0.50;;
5465;SDS011;2755;50.728;7.108;2022-10-16T12:17:35;0.60;;;0.30;;
5465;SDS011;2755;50.728;7.108;2022-10-16T12:22:36;0.93;;;0.40;;
5465;SDS011;2755;50.728;7.108;2022-10-16T12:25:26;0.70;;;0.40;;
5465;SDS011;2755;50.728;7.108;2022-10-16T12:28:06;0.60;;;0.30;;
5465;SDS011;2755;50.728;7.108;2022-10-16T12:30:54;1.23;;;0.57;;
5465;SDS011;2755;50.728;7.108;2022-10-16T12:35:59;0.80;;;0.40;;
5465;SDS011;2755;50.728;7.108;2022-10-16T12:38:30;0.70;;;0.40;;
5465;SDS011;2755;50.728;7.108;2022-10-16T12:41:11;2.50;;;0.40;;
5465;SDS011;2755;50.728;7.108;2022-10-16T12:48:39;2.20;;;0.50;;
5465;SDS011;2755;50.728;7.108;2022-10-16T12:51:22;7.87;;;0.70;;
5465;SDS011;2755;50.728;7.108;2022-10-16T12:54:00;2.63;;;0.57;;
5465;SDS011;2755;50.728;7.108;2022-10-16T12:56:31;1.07;;;0.40;;
5465;SDS011;2755;50.728;7.108;2022-10-16T13:01:52;1.27;;;0.40;;
5465;SDS011;2755;50.728;7.108;2022-10-16T13:18:21;0.73;;;0.40;;
5465;SDS011;2755;50.728;7.108;2022-10-16T13:21:02;0.83;;;0.50;;
5465;SDS011;2755;50.728;7.108;2022-10-16T13:24:02;0.70;;;0.40;;
5465;SDS011;2755;50.728;7.108;2022-10-16T13:27:21;0.80;;;0.40;;
5465;SDS011;2755;50.728;7.108;2022-10-16T13:29:31;3.73;;;0.40;;
5465;SDS011;2755;50.728;7.108;2022-10-16T13:31:58;1.67;;;0.50;;
5465;SDS011;2755;50.728;7.108;2022-10-16T13:34:32;1.40;;;0.50;;
5465;SDS011;2755;50.728;7.108;2022-10-16T13:36:58;1.47;;;0.50;;
5465;SDS011;2755;50.728;7.108;2022-10-16T13:44:39;0.83;;;0.50;;
5465;SDS011;2755;50.728;7.108;2022-10-16T13:47:13;1.20;;;0.70;;
5465;SDS011;2755;50.728;7.108;2022-10-16T13:49:43;1.10;;;0.40;;
5465;SDS011;2755;50.728;7.108;2022-10-16T13:52:18;0.90;;;0.50;;
5465;SDS011;2755;50.728;7.108;2022-10-16T13:54:46;1.10;;;0.43;;
5465;SDS011;2755;50.728;7.108;2022-10-16T13:57:13;0.90;;;0.53;;
5465;SDS011;2755;50.728;7.108;2022-10-16T13:59:40;1.13;;;0.50;;
5465;SDS011;2755;50.728;7.108;2022-10-16T14:05:00;0.70;;;0.40;;
5465;SDS011;2755;50.728;7.108;2022-10-16T14:07:30;0.70;;;0.40;;
5465;SDS011;2755;50.728;7.108;2022-10-16T14:10:07;1.00;;;0.40;;
5465;SDS011;2755;50.728;7.108;2022-10-16T14:12:55;0.90;;;0.40;;
5465;SDS011;2755;50.728;7.108;2022-10-16T14:15:22;3.03;;;0.73;;
5465;SDS011;2755;50.728;7.108;2022-10-16T14:17:49;0.87;;;0.40;;
5465;SDS011;2755;50.728;7.108;2022-10-16T14:20:16;2.07;;;0.40;;
5465;SDS011;2755;50.728;7.108;2022-10-16T14:22:42;1.50;;;0.50;;
5465;SDS011;2755;50.728;7.108;2022-10-16T14:27:58;1.03;;;0.47;;
5465;SDS011;2755;50.728;7.108;2022-10-16T14:30:27;0.83;;;0.60;;
5465;SDS011;2755;50.728;7.108;2022-10-16T14:32:54;1.23;;;0.60;;
5465;SDS011;2755;50.728;7.108;2022-10-16T14:38:02;1.10;;;0.50;;
5465;SDS011;2755;50.728;7.108;2022-10-16T14:40:30;2.63;;;0.80;;
5465;SDS011;2755;50.728;7.108;2022-10-16T14:42:57;0.90;;;0.60;;
5465;SDS011;2755;50.728;7.108;2022-10-16T14:45:25;0.90;;;0.60;;
5465;SDS011;2755;50.728;7.108;2022-10-16T14:47:58;0.97;;;0.63;;
5465;SDS011;2755;50.728;7.108;2022-10-16T14:50:26;0.80;;;0.63;;
5465;SDS011;2755;50.728;7.108;2022-10-16T14:52:52;1.10;;;0.70;;
5465;SDS011;2755;50.728;7.108;2022-10-16T14:55:18;1.00;;;0.70;;
5465;SDS011;2755;50.728;7.108;2022-10-16T14:57:44;1.13;;;0.70;;
5465;SDS011;2755;50.728;7.108;2022-10-16T15:00:18;1.37;;;0.70;;
5465;SDS011;2755;50.728;7.108;2022-10-16T15:02:46;1.63;;;0.80;;
5465;SDS011;2755;50.728;7.108;2022-10-16T15:07:42;1.07;;;0.70;;
5465;SDS011;2755;50.728;7.108;2022-10-16T15:10:09;1.20;;;0.80;;
5465;SDS011;2755;50.728;7.108;2022-10-16T15:12:38;1.10;;;0.80;;
5465;SDS011;2755;50.728;7.108;2022-10-16T15:15:38;2.60;;;0.90;;
5465;SDS011;2755;50.728;7.108;2022-10-16T15:18:05;1.50;;;0.90;;
5465;SDS011;2755;50.728;7.108;2022-10-16T15:20:32;1.97;;;0.80;;
5465;SDS011;2755;50.728;7.108;2022-10-16T15:23:03;1.10;;;0.80;;
5465;SDS011;2755;50.728;7.108;2022-10-16T15:28:12;3.20;;;1.10;;
5465;SDS011;2755;50.728;7.108;2022-10-16T15:30:40;1.87;;;0.87;;
5465;SDS011;2755;50.728;7.108;2022-10-16T15:33:10;1.60;;;1.00;;
5465;SDS011;2755;50.728;7.108;2022-10-16T15:35:38;1.90;;;1.20;;
5465;SDS011;2755;50.728;7.108;2022-10-16T15:38:03;2.20;;;1.10;;
5465;SDS011;2755;50.728;7.108;2022-10-16T15:40:29;1.33;;;0.90;;
5465;SDS011;2755;50.728;7.108;2022-10-16T15:42:55;2.63;;;1.50;;
5465;SDS011;2755;50.728;7.108;2022-10-16T15:45:21;2.20;;;1.07;;
5465;SDS011;2755;50.728;7.108;2022-10-16T15:47:46;1.83;;;1.20;;
5465;SDS011;2755;50.728;7.108;2022-10-16T15:50:13;1.47;;;0.70;;
5465;SDS011;2755;50.728;7.108;2022-10-16T15:52:40;1.17;;;0.80;;
5465;SDS011;2755;50.728;7.108;2022-10-16T15:55:10;2.53;;;1.03;;
5465;SDS011;2755;50.728;7.108;2022-10-16T15:57:37;2.83;;;1.40;;
5465;SDS011;2755;50.728;7.108;2022-10-16T16:00:09;5.40;;;1.63;;
5465;SDS011;2755;50.728;7.108;2022-10-16T16:02:40;5.53;;;1.73;;
5465;SDS011;2755;50.728;7.108;2022-10-16T16:05:07;2.60;;;1.47;;
5465;SDS011;2755;50.728;7.108;2022-10-16T16:07:35;3.13;;;2.00;;
5465;SDS011;2755;50.728;7.108;2022-10-16T16:10:03;4.93;;;3.70;;
5465;SDS011;2755;50.728;7.108;2022-10-16T16:12:30;38.37;;;22.50;;
5465;SDS011;2755;50.728;7.108;2022-10-16T16:14:56;34.57;;;17.53;;
5465;SDS011;2755;50.728;7.108;2022-10-16T16:17:22;22.70;;;12.67;;
5465;SDS011;2755;50.728;7.108;2022-10-16T16:19:49;10.50;;;6.33;;
5465;SDS011;2755;50.728;7.108;2022-10-16T16:22:15;9.23;;;4.30;;
5465;SDS011;2755;50.728;7.108;2022-10-16T16:24:41;4.37;;;2.00;;
5465;SDS011;2755;50.728;7.108;2022-10-16T16:27:07;2.50;;;1.10;;
5465;SDS011;2755;50.728;7.108;2022-10-16T16:29:33;1.40;;;0.90;;
5465;SDS011;2755;50.728;7.108;2022-10-16T16:31:59;4.20;;;1.30;;
5465;SDS011;2755;50.728;7.108;2022-10-16T16:34:26;1.90;;;1.30;;
5465;SDS011;2755;50.728;7.108;2022-10-16T16:36:52;2.40;;;1.33;;
5465;SDS011;2755;50.728;7.108;2022-10-16T16:39:18;1.97;;;1.13;;
5465;SDS011;2755;50.728;7.108;2022-10-16T16:41:44;1.27;;;0.90;;
5465;SDS011;2755;50.728;7.108;2022-10-16T16:44:10;2.13;;;0.93;;
5465;SDS011;2755;50.728;7.108;2022-10-16T16:46:37;1.50;;;1.03;;
5465;SDS011;2755;50.728;7.108;2022-10-16T16:49:04;3.27;;;1.20;;
5465;SDS011;2755;50.728;7.108;2022-10-16T16:51:30;3.80;;;1.07;;
5465;SDS011;2755;50.728;7.108;2022-10-16T16:53:57;1.23;;;0.90;;
5465;SDS011;2755;50.728;7.108;2022-10-16T16:56:23;1.47;;;1.00;;
5465;SDS011;2755;50.728;7.108;2022-10-16T16:58:50;2.23;;;0.90;;
5465;SDS011;2755;50.728;7.108;2022-10-16T17:01:17;2.30;;;0.90;;
5465;SDS011;2755;50.728;7.108;2022-10-16T17:03:44;1.30;;;0.90;;
5465;SDS011;2755;50.728;7.108;2022-10-16T17:06:10;1.83;;;1.20;;
5465;SDS011;2755;50.728;7.108;2022-10-16T17:08:37;1.23;;;1.00;;
5465;SDS011;2755;50.728;7.108;2022-10-16T17:11:03;0.93;;;0.80;;
5465;SDS011;2755;50.728;7.108;2022-10-16T17:13:31;4.83;;;1.10;;
5465;SDS011;2755;50.728;7.108;2022-10-16T17:16:02;1.57;;;1.03;;
5465;SDS011;2755;50.728;7.108;2022-10-16T17:18:29;1.07;;;0.77;;
5465;SDS011;2755;50.728;7.108;2022-10-16T17:20:58;1.17;;;0.70;;
5465;SDS011;2755;50.728;7.108;2022-10-16T17:23:24;2.40;;;1.13;;
5465;SDS011;2755;50.728;7.108;2022-10-16T17:25:50;2.23;;;1.37;;
5465;SDS011;2755;50.728;7.108;2022-10-16T17:28:16;1.40;;;1.00;;
5465;SDS011;2755;50.728;7.108;2022-10-16T17:30:42;2.00;;;1.50;;